sensor_id;sensor_type;location;lat;lon;timestamp;pressure;altitude;pressure_sealevel;temperature;humidity
11712;BME280;5912;51.034;6.984;2023-03-12T00:00:19;56740.97;;;-142.13;53.31
11712;BME280;5912;51.034;6.984;2023-03-12T00:02:45;56720.94;;;-142.13;52.76
11712;BME280;5912;51.034;6.984;2023-03-12T00:05:10;56712.91;;;-142.13;53.13
11712;BME280;5912;51.034;6.984;2023-03-12T00:07:36;56736.94;;;-142.13;53.48
11712;BME280;5912;51.034;6.984;2023-03-12T00:10:04;56765.00;;;-142.13;53.78
11712;BME280;5912;51.034;6.984;2023-03-12T00:12:29;56738.97;;;-142.13;53.01
11712;BME280;5912;51.034;6.984;2023-03-12T00:14:55;56752.97;;;-142.13;53.65
11712;BME280;5912;51.034;6.984;2023-03-12T00:17:20;56757.00;;;-142.13;53.37
11712;BME280;5912;51.034;6.984;2023-03-12T00:19:45;56754.97;;;-142.13;53.28
11712;BME280;5912;51.034;6.984;2023-03-12T00:22:10;56742.97;;;-142.13;52.68
11712;BME280;5912;51.034;6.984;2023-03-12T00:24:36;56736.94;;;-142.13;53.08
11712;BME280;5912;51.034;6.984;2023-03-12T00:27:01;56757.00;;;-142.13;52.95
11712;BME280;5912;51.034;6.984;2023-03-12T00:29:26;56769.00;;;-142.13;52.35
11712;BME280;5912;51.034;6.984;2023-03-12T00:31:52;56750.97;;;-142.13;52.39
11712;BME280;5912;51.034;6.984;2023-03-12T00:34:18;56744.97;;;-142.13;52.62
11712;BME280;5912;51.034;6.984;2023-03-12T00:36:43;56750.97;;;-142.13;52.12
11712;BME280;5912;51.034;6.984;2023-03-12T00:39:08;56732.94;;;-142.13;52.18
11712;BME280;5912;51.034;6.984;2023-03-12T00:41:34;56714.91;;;-142.13;51.94
11712;BME280;5912;51.034;6.984;2023-03-12T00:43:59;56750.97;;;-142.13;52.00
11712;BME280;5912;51.034;6.984;2023-03-12T00:46:25;56736.94;;;-142.13;52.34
11712;BME280;5912;51.034;6.984;2023-03-12T00:48:50;56748.97;;;-142.13;51.76
11712;BME280;5912;51.034;6.984;2023-03-12T00:51:15;56736.94;;;-142.13;52.04
11712;BME280;5912;51.034;6.984;2023-03-12T00:53:41;56720.94;;;-142.13;51.93
11712;BME280;5912;51.034;6.984;2023-03-12T00:56:07;56722.94;;;-142.13;52.11
11712;BME280;5912;51.034;6.984;2023-03-12T00:58:32;56738.97;;;-142.13;51.63
11712;BME280;5912;51.034;6.984;2023-03-12T01:00:58;56742.97;;;-142.13;51.65
11712;BME280;5912;51.034;6.984;2023-03-12T01:03:23;56740.97;;;-142.13;51.67
11712;BME280;5912;51.034;6.984;2023-03-12T01:05:48;56716.91;;;-142.13;52.17
11712;BME280;5912;51.034;6.984;2023-03-12T01:08:19;56750.97;;;-142.13;51.80
11712;BME280;5912;51.034;6.984;2023-03-12T01:10:45;56716.91;;;-142.13;51.39
11712;BME280;5912;51.034;6.984;2023-03-12T01:13:10;56728.94;;;-142.13;51.32
11712;BME280;5912;51.034;6.984;2023-03-12T01:15:36;56736.94;;;-142.13;51.25
11712;BME280;5912;51.034;6.984;2023-03-12T01:18:01;56722.94;;;-142.13;51.35
11712;BME280;5912;51.034;6.984;2023-03-12T01:20:26;56720.94;;;-142.13;51.18
11712;BME280;5912;51.034;6.984;2023-03-12T01:22:52;56734.94;;;-142.13;51.42
11712;BME280;5912;51.034;6.984;2023-03-12T01:25:18;56748.97;;;-142.13;51.06
11712;BME280;5912;51.034;6.984;2023-03-12T01:27:43;56726.94;;;-142.13;51.09
11712;BME280;5912;51.034;6.984;2023-03-12T01:30:09;56746.97;;;-142.13;51.17
11712;BME280;5912;51.034;6.984;2023-03-12T01:32:34;56720.94;;;-142.13;51.04
11712;BME280;5912;51.034;6.984;2023-03-12T01:35:00;56754.97;;;-142.13;50.71
11712;BME280;5912;51.034;6.984;2023-03-12T01:37:26;56720.94;;;-142.13;50.79
11712;BME280;5912;51.034;6.984;2023-03-12T01:39:51;56726.94;;;-142.13;50.43
11712;BME280;5912;51.034;6.984;2023-03-12T01:42:17;56720.94;;;-142.13;50.82
11712;BME280;5912;51.034;6.984;2023-03-12T01:47:20;56732.94;;;-142.13;50.23
11712;BME280;5912;51.034;6.984;2023-03-12T01:49:47;56734.94;;;-142.13;50.29
11712;BME280;5912;51.034;6.984;2023-03-12T01:52:16;56744.97;;;-142.13;50.41
11712;BME280;5912;51.034;6.984;2023-03-12T01:55:04;56716.91;;;-142.13;49.76
11712;BME280;5912;51.034;6.984;2023-03-12T01:57:40;56702.91;;;-142.13;49.94
11712;BME280;5912;51.034;6.984;2023-03-12T02:00:16;56765.00;;;-142.13;49.74
11712;BME280;5912;51.034;6.984;2023-03-12T02:02:43;56708.91;;;-142.13;50.23
11712;BME280;5912;51.034;6.984;2023-03-12T02:05:17;56730.94;;;-142.13;50.13
11712;BME280;5912;51.034;6.984;2023-03-12T02:07:43;56712.91;;;-142.13;50.21
11712;BME280;5912;51.034;6.984;2023-03-12T02:10:09;56692.88;;;-142.13;50.46
11712;BME280;5912;51.034;6.984;2023-03-12T02:12:35;56714.91;;;-142.13;50.70
11712;BME280;5912;51.034;6.984;2023-03-12T02:15:00;56724.94;;;-142.13;50.66
11712;BME280;5912;51.034;6.984;2023-03-12T02:17:26;56750.97;;;-142.13;50.24
11712;BME280;5912;51.034;6.984;2023-03-12T02:19:59;56724.94;;;-142.13;50.27
11712;BME280;5912;51.034;6.984;2023-03-12T02:22:34;56714.91;;;-142.13;50.25
11712;BME280;5912;51.034;6.984;2023-03-12T02:27:37;56730.94;;;-142.13;50.22
11712;BME280;5912;51.034;6.984;2023-03-12T02:30:04;56748.97;;;-142.13;49.63
11712;BME280;5912;51.034;6.984;2023-03-12T02:32:34;56714.91;;;-142.13;49.65
11712;BME280;5912;51.034;6.984;2023-03-12T02:35:02;56700.91;;;-142.13;49.94
11712;BME280;5912;51.034;6.984;2023-03-12T02:37:27;56710.91;;;-142.13;49.46
11712;BME280;5912;51.034;6.984;2023-03-12T02:39:59;56700.91;;;-142.13;49.65
11712;BME280;5912;51.034;6.984;2023-03-12T02:42:26;56748.97;;;-142.13;49.26
11712;BME280;5912;51.034;6.984;2023-03-12T02:48:08;56710.91;;;-142.13;49.33
11712;BME280;5912;51.034;6.984;2023-03-12T02:50:33;56732.94;;;-142.13;49.31
11712;BME280;5912;51.034;6.984;2023-03-12T02:52:58;56684.88;;;-142.13;49.19
11712;BME280;5912;51.034;6.984;2023-03-12T02:55:24;56716.91;;;-142.13;49.33
11712;BME280;5912;51.034;6.984;2023-03-12T02:57:49;56710.91;;;-142.13;48.89
11712;BME280;5912;51.034;6.984;2023-03-12T03:00:15;56688.88;;;-142.13;49.55
11712;BME280;5912;51.034;6.984;2023-03-12T03:02:41;56728.94;;;-142.13;49.01
11712;BME280;5912;51.034;6.984;2023-03-12T03:05:08;56718.91;;;-142.13;49.31
11712;BME280;5912;51.034;6.984;2023-03-12T03:07:34;56728.94;;;-142.13;48.69
11712;BME280;5912;51.034;6.984;2023-03-12T03:09:59;56684.88;;;-142.13;49.07
11712;BME280;5912;51.034;6.984;2023-03-12T03:12:29;56736.94;;;-142.13;48.93
11712;BME280;5912;51.034;6.984;2023-03-12T03:14:54;56716.91;;;-142.13;48.82
11712;BME280;5912;51.034;6.984;2023-03-12T03:17:20;56746.97;;;-142.13;49.03
11712;BME280;5912;51.034;6.984;2023-03-12T03:19:47;56696.88;;;-142.13;48.86
11712;BME280;5912;51.034;6.984;2023-03-12T03:22:13;56712.91;;;-142.13;48.95
11712;BME280;5912;51.034;6.984;2023-03-12T03:24:38;56696.88;;;-142.13;48.91
11712;BME280;5912;51.034;6.984;2023-03-12T03:27:03;56720.94;;;-142.13;49.30
11712;BME280;5912;51.034;6.984;2023-03-12T03:29:28;56720.94;;;-142.13;49.37
11712;BME280;5912;51.034;6.984;2023-03-12T03:31:54;56702.91;;;-142.13;49.44
11712;BME280;5912;51.034;6.984;2023-03-12T03:34:19;56702.91;;;-142.13;49.48
11712;BME280;5912;51.034;6.984;2023-03-12T03:36:44;56680.84;;;-142.13;49.41
11712;BME280;5912;51.034;6.984;2023-03-12T03:39:10;56736.94;;;-142.13;49.55
11712;BME280;5912;51.034;6.984;2023-03-12T03:41:36;56710.91;;;-142.13;49.68
11712;BME280;5912;51.034;6.984;2023-03-12T03:44:02;56708.91;;;-142.13;49.81
11712;BME280;5912;51.034;6.984;2023-03-12T03:46:29;56684.88;;;-142.13;48.95
11712;BME280;5912;51.034;6.984;2023-03-12T03:48:55;56676.84;;;-142.13;49.26
11712;BME280;5912;51.034;6.984;2023-03-12T03:51:21;56724.94;;;-142.13;48.85
11712;BME280;5912;51.034;6.984;2023-03-12T03:53:46;56720.94;;;-142.13;49.24
11712;BME280;5912;51.034;6.984;2023-03-12T03:56:14;56710.91;;;-142.13;48.90
11712;BME280;5912;51.034;6.984;2023-03-12T03:58:39;56718.91;;;-142.13;49.12
11712;BME280;5912;51.034;6.984;2023-03-12T04:01:05;56708.91;;;-142.13;49.22
11712;BME280;5912;51.034;6.984;2023-03-12T04:03:32;56696.88;;;-142.13;48.97
11712;BME280;5912;51.034;6.984;2023-03-12T04:06:00;56712.91;;;-142.13;48.92
11712;BME280;5912;51.034;6.984;2023-03-12T04:08:25;56704.91;;;-142.13;48.88
11712;BME280;5912;51.034;6.984;2023-03-12T04:10:51;56712.91;;;-142.13;48.44
11712;BME280;5912;51.034;6.984;2023-03-12T04:13:17;56704.91;;;-142.13;48.18
11712;BME280;5912;51.034;6.984;2023-03-12T04:15:50;56700.91;;;-142.13;48.22
11712;BME280;5912;51.034;6.984;2023-03-12T04:18:17;56706.91;;;-142.13;48.22
11712;BME280;5912;51.034;6.984;2023-03-12T04:20:42;56704.91;;;-142.13;48.46
11712;BME280;5912;51.034;6.984;2023-03-12T04:23:08;56678.84;;;-142.13;48.42
11712;BME280;5912;51.034;6.984;2023-03-12T04:25:33;56706.91;;;-142.13;48.64
11712;BME280;5912;51.034;6.984;2023-03-12T04:27:58;56704.91;;;-142.13;48.31
11712;BME280;5912;51.034;6.984;2023-03-12T04:30:25;56700.91;;;-142.13;48.26
11712;BME280;5912;51.034;6.984;2023-03-12T04:32:50;56696.88;;;-142.13;48.40
11712;BME280;5912;51.034;6.984;2023-03-12T04:35:16;56704.91;;;-142.13;47.97
11712;BME280;5912;51.034;6.984;2023-03-12T04:37:41;56690.88;;;-142.13;47.91
11712;BME280;5912;51.034;6.984;2023-03-12T04:40:07;56682.88;;;-142.13;47.88
11712;BME280;5912;51.034;6.984;2023-03-12T04:42:34;56706.91;;;-142.13;47.86
11712;BME280;5912;51.034;6.984;2023-03-12T04:45:00;56917.25;;;-142.13;47.98
11712;BME280;5912;51.034;6.984;2023-03-12T04:47:25;56674.84;;;-142.13;47.71
11712;BME280;5912;51.034;6.984;2023-03-12T04:49:51;56674.84;;;-142.13;47.61
11712;BME280;5912;51.034;6.984;2023-03-12T04:52:16;56700.91;;;-142.13;47.85
11712;BME280;5912;51.034;6.984;2023-03-12T04:54:42;56680.84;;;-142.13;47.43
11712;BME280;5912;51.034;6.984;2023-03-12T04:57:07;56684.88;;;-142.13;47.71
11712;BME280;5912;51.034;6.984;2023-03-12T04:59:33;56710.91;;;-142.13;47.96
11712;BME280;5912;51.034;6.984;2023-03-12T05:01:58;56692.88;;;-142.13;47.89
11712;BME280;5912;51.034;6.984;2023-03-12T05:04:23;56678.84;;;-142.13;47.29
11712;BME280;5912;51.034;6.984;2023-03-12T05:06:48;56694.88;;;-142.13;47.76
11712;BME280;5912;51.034;6.984;2023-03-12T05:09:14;56696.88;;;-142.13;47.64
11712;BME280;5912;51.034;6.984;2023-03-12T05:11:39;56728.94;;;-142.13;48.04
11712;BME280;5912;51.034;6.984;2023-03-12T05:14:04;56688.88;;;-142.13;48.94
11712;BME280;5912;51.034;6.984;2023-03-12T05:16:30;56704.91;;;-142.13;49.77
11712;BME280;5912;51.034;6.984;2023-03-12T05:18:55;56676.84;;;-142.13;50.98
11712;BME280;5912;51.034;6.984;2023-03-12T05:21:21;56692.88;;;-142.13;51.88
11712;BME280;5912;51.034;6.984;2023-03-12T05:23:47;56694.88;;;-142.13;52.41
11712;BME280;5912;51.034;6.984;2023-03-12T05:26:20;56636.78;;;-142.13;53.23
11712;BME280;5912;51.034;6.984;2023-03-12T05:28:47;56714.91;;;-142.13;54.06
11712;BME280;5912;51.034;6.984;2023-03-12T05:31:13;56668.84;;;-142.13;55.11
11712;BME280;5912;51.034;6.984;2023-03-12T05:33:39;56696.88;;;-142.13;55.58
11712;BME280;5912;51.034;6.984;2023-03-12T05:36:06;56734.94;;;-142.13;57.05
11712;BME280;5912;51.034;6.984;2023-03-12T05:38:31;56704.91;;;-142.13;57.53
11712;BME280;5912;51.034;6.984;2023-03-12T05:40:57;56722.94;;;-142.13;58.83
11712;BME280;5912;51.034;6.984;2023-03-12T05:43:26;56696.88;;;-142.13;58.99
11712;BME280;5912;51.034;6.984;2023-03-12T05:45:52;56716.91;;;-142.13;59.49
11712;BME280;5912;51.034;6.984;2023-03-12T05:48:17;56692.88;;;-142.13;60.24
11712;BME280;5912;51.034;6.984;2023-03-12T05:50:43;56686.88;;;-142.13;60.67
11712;BME280;5912;51.034;6.984;2023-03-12T05:53:09;56730.94;;;-142.13;61.03
11712;BME280;5912;51.034;6.984;2023-03-12T05:55:38;56724.94;;;-142.13;61.50
11712;BME280;5912;51.034;6.984;2023-03-12T05:58:05;56726.94;;;-142.13;61.84
11712;BME280;5912;51.034;6.984;2023-03-12T06:00:32;56736.94;;;-142.13;61.83
11712;BME280;5912;51.034;6.984;2023-03-12T06:02:59;56722.94;;;-142.13;62.15
11712;BME280;5912;51.034;6.984;2023-03-12T06:05:25;56761.00;;;-142.13;62.25
11712;BME280;5912;51.034;6.984;2023-03-12T06:07:50;56722.94;;;-142.13;62.74
11712;BME280;5912;51.034;6.984;2023-03-12T06:10:15;56672.84;;;-142.13;63.01
11712;BME280;5912;51.034;6.984;2023-03-12T06:12:41;56740.97;;;-142.13;63.75
11712;BME280;5912;51.034;6.984;2023-03-12T06:15:06;56716.91;;;-142.13;63.88
11712;BME280;5912;51.034;6.984;2023-03-12T06:17:32;56710.91;;;-142.13;64.35
11712;BME280;5912;51.034;6.984;2023-03-12T06:19:58;56708.91;;;-142.13;64.64
11712;BME280;5912;51.034;6.984;2023-03-12T06:22:24;56696.88;;;-142.13;65.06
11712;BME280;5912;51.034;6.984;2023-03-12T06:24:49;56724.94;;;-142.13;65.46
11712;BME280;5912;51.034;6.984;2023-03-12T06:27:15;56708.91;;;-142.13;65.58
11712;BME280;5912;51.034;6.984;2023-03-12T06:29:41;56696.88;;;-142.13;66.00
11712;BME280;5912;51.034;6.984;2023-03-12T06:32:07;56714.91;;;-142.13;66.20
11712;BME280;5912;51.034;6.984;2023-03-12T06:34:32;56704.91;;;-142.13;66.18
11712;BME280;5912;51.034;6.984;2023-03-12T06:36:57;56728.94;;;-142.13;66.17
11712;BME280;5912;51.034;6.984;2023-03-12T06:39:23;56730.94;;;-142.13;66.58
11712;BME280;5912;51.034;6.984;2023-03-12T06:41:48;56712.91;;;-142.13;66.62
11712;BME280;5912;51.034;6.984;2023-03-12T06:44:14;56740.97;;;-142.13;66.63
11712;BME280;5912;51.034;6.984;2023-03-12T06:46:39;56700.91;;;-142.13;66.76
11712;BME280;5912;51.034;6.984;2023-03-12T06:49:05;56720.94;;;-142.13;66.40
11712;BME280;5912;51.034;6.984;2023-03-12T06:51:31;56736.94;;;-142.13;66.62
11712;BME280;5912;51.034;6.984;2023-03-12T06:53:56;56708.91;;;-142.13;66.46
11712;BME280;5912;51.034;6.984;2023-03-12T06:56:21;56730.94;;;-142.13;66.28
11712;BME280;5912;51.034;6.984;2023-03-12T06:58:46;56708.91;;;-142.13;66.10
11712;BME280;5912;51.034;6.984;2023-03-12T07:01:12;56696.88;;;-142.13;65.96
11712;BME280;5912;51.034;6.984;2023-03-12T07:03:38;56716.91;;;-142.13;66.12
11712;BME280;5912;51.034;6.984;2023-03-12T07:06:03;56702.91;;;-142.13;65.28
11712;BME280;5912;51.034;6.984;2023-03-12T07:08:29;56674.84;;;-142.13;65.92
11712;BME280;5912;51.034;6.984;2023-03-12T07:10:56;56694.88;;;-142.13;65.49
11712;BME280;5912;51.034;6.984;2023-03-12T07:13:21;56664.84;;;-142.13;65.18
11712;BME280;5912;51.034;6.984;2023-03-12T07:15:47;56708.91;;;-142.13;65.18
11712;BME280;5912;51.034;6.984;2023-03-12T07:18:12;56706.91;;;-142.13;65.60
11712;BME280;5912;51.034;6.984;2023-03-12T07:20:41;56672.84;;;-142.13;65.25
11712;BME280;5912;51.034;6.984;2023-03-12T07:23:07;56706.91;;;-142.13;64.82
11712;BME280;5912;51.034;6.984;2023-03-12T07:25:40;56702.91;;;-142.13;64.83
11712;BME280;5912;51.034;6.984;2023-03-12T07:28:07;56736.94;;;-142.13;64.33
11712;BME280;5912;51.034;6.984;2023-03-12T07:30:33;56676.84;;;-142.13;64.21
11712;BME280;5912;51.034;6.984;2023-03-12T07:33:03;56680.84;;;-142.13;64.34
11712;BME280;5912;51.034;6.984;2023-03-12T07:35:28;56694.88;;;-142.13;64.21
11712;BME280;5912;51.034;6.984;2023-03-12T07:37:55;56672.84;;;-142.13;64.24
11712;BME280;5912;51.034;6.984;2023-03-12T07:40:20;56680.84;;;-142.13;63.44
11712;BME280;5912;51.034;6.984;2023-03-12T07:42:46;56686.88;;;-142.13;63.36
11712;BME280;5912;51.034;6.984;2023-03-12T07:45:11;56698.88;;;-142.13;63.34
11712;BME280;5912;51.034;6.984;2023-03-12T07:47:36;56708.91;;;-142.13;63.41
11712;BME280;5912;51.034;6.984;2023-03-12T07:50:02;56696.88;;;-142.13;63.44
11712;BME280;5912;51.034;6.984;2023-03-12T07:52:27;56676.84;;;-142.13;63.48
11712;BME280;5912;51.034;6.984;2023-03-12T07:54:53;56720.94;;;-142.13;63.44
11712;BME280;5912;51.034;6.984;2023-03-12T07:57:21;56656.81;;;-142.13;63.65
11712;BME280;5912;51.034;6.984;2023-03-12T07:59:46;56704.91;;;-142.13;63.51
11712;BME280;5912;51.034;6.984;2023-03-12T08:02:11;56700.91;;;-142.13;62.51
11712;BME280;5912;51.034;6.984;2023-03-12T08:04:37;56696.88;;;-142.13;62.44
11712;BME280;5912;51.034;6.984;2023-03-12T08:07:02;56690.88;;;-142.13;63.22
11712;BME280;5912;51.034;6.984;2023-03-12T08:09:28;56658.81;;;-142.13;62.84
11712;BME280;5912;51.034;6.984;2023-03-12T08:11:53;56690.88;;;-142.13;62.71
11712;BME280;5912;51.034;6.984;2023-03-12T08:14:19;56674.84;;;-142.13;62.72
11712;BME280;5912;51.034;6.984;2023-03-12T08:16:44;56694.88;;;-142.13;63.06
11712;BME280;5912;51.034;6.984;2023-03-12T08:19:09;56678.84;;;-142.13;63.32
11712;BME280;5912;51.034;6.984;2023-03-12T08:21:35;56688.88;;;-142.13;62.76
11712;BME280;5912;51.034;6.984;2023-03-12T08:24:00;56682.88;;;-142.13;62.58
11712;BME280;5912;51.034;6.984;2023-03-12T08:26:26;56682.88;;;-142.13;62.35
11712;BME280;5912;51.034;6.984;2023-03-12T08:28:51;56640.78;;;-142.13;62.21
11712;BME280;5912;51.034;6.984;2023-03-12T08:31:16;56660.81;;;-142.13;62.55
11712;BME280;5912;51.034;6.984;2023-03-12T08:33:42;56664.84;;;-142.13;63.70
11712;BME280;5912;51.034;6.984;2023-03-12T08:36:08;56650.81;;;-142.13;63.10
11712;BME280;5912;51.034;6.984;2023-03-12T08:38:34;56676.84;;;-142.13;63.61
11712;BME280;5912;51.034;6.984;2023-03-12T08:40:59;56666.84;;;-142.13;63.98
11712;BME280;5912;51.034;6.984;2023-03-12T08:43:26;56644.81;;;-142.13;64.81
11712;BME280;5912;51.034;6.984;2023-03-12T08:45:59;56658.81;;;-142.13;64.76
11712;BME280;5912;51.034;6.984;2023-03-12T08:48:27;56644.81;;;-142.13;65.85
11712;BME280;5912;51.034;6.984;2023-03-12T08:50:57;56642.78;;;-142.13;65.75
11712;BME280;5912;51.034;6.984;2023-03-12T08:53:26;56662.81;;;-142.13;65.73
11712;BME280;5912;51.034;6.984;2023-03-12T08:55:52;56664.84;;;-142.13;66.20
11712;BME280;5912;51.034;6.984;2023-03-12T08:58:18;56664.84;;;-142.13;66.35
11712;BME280;5912;51.034;6.984;2023-03-12T09:00:43;56640.78;;;-142.13;65.86
11712;BME280;5912;51.034;6.984;2023-03-12T09:03:09;56632.78;;;-142.13;65.70
11712;BME280;5912;51.034;6.984;2023-03-12T09:05:38;56650.81;;;-142.13;65.80
11712;BME280;5912;51.034;6.984;2023-03-12T09:08:03;56640.78;;;-142.13;66.18
11712;BME280;5912;51.034;6.984;2023-03-12T09:10:28;56650.81;;;-142.13;66.35
11712;BME280;5912;51.034;6.984;2023-03-12T09:12:54;56676.84;;;-142.13;66.28
11712;BME280;5912;51.034;6.984;2023-03-12T09:15:19;56634.78;;;-142.13;66.57
11712;BME280;5912;51.034;6.984;2023-03-12T09:17:44;56640.78;;;-142.13;66.53
11712;BME280;5912;51.034;6.984;2023-03-12T09:20:12;56642.78;;;-142.13;67.41
11712;BME280;5912;51.034;6.984;2023-03-12T09:22:38;56640.78;;;-142.13;67.45
11712;BME280;5912;51.034;6.984;2023-03-12T09:25:05;56678.84;;;-142.13;67.85
11712;BME280;5912;51.034;6.984;2023-03-12T09:27:35;56660.81;;;-142.13;67.98
11712;BME280;5912;51.034;6.984;2023-03-12T09:30:22;56638.78;;;-142.13;68.32
11712;BME280;5912;51.034;6.984;2023-03-12T09:32:50;56650.81;;;-142.13;68.98
11712;BME280;5912;51.034;6.984;2023-03-12T09:35:15;56660.81;;;-142.13;68.61
11712;BME280;5912;51.034;6.984;2023-03-12T09:37:41;56656.81;;;-142.13;68.27
11712;BME280;5912;51.034;6.984;2023-03-12T09:40:10;56632.78;;;-142.13;69.00
11712;BME280;5912;51.034;6.984;2023-03-12T09:42:48;56654.81;;;-142.13;69.48
11712;BME280;5912;51.034;6.984;2023-03-12T09:45:19;56654.81;;;-142.13;69.76
11712;BME280;5912;51.034;6.984;2023-03-12T09:47:51;56618.75;;;-142.13;70.14
11712;BME280;5912;51.034;6.984;2023-03-12T09:55:21;56652.81;;;-142.13;69.80
11712;BME280;5912;51.034;6.984;2023-03-12T09:57:48;56644.81;;;-142.13;70.01
11712;BME280;5912;51.034;6.984;2023-03-12T10:00:17;56636.78;;;-142.13;70.80
11712;BME280;5912;51.034;6.984;2023-03-12T10:03:15;56648.81;;;-142.13;70.85
11712;BME280;5912;51.034;6.984;2023-03-12T10:09:05;56638.78;;;-142.13;71.07
11712;BME280;5912;51.034;6.984;2023-03-12T10:11:48;56664.84;;;-142.13;72.00
11712;BME280;5912;51.034;6.984;2023-03-12T10:14:47;56624.75;;;-142.13;71.62
11712;BME280;5912;51.034;6.984;2023-03-12T10:23:06;56652.81;;;-142.13;71.49
11712;BME280;5912;51.034;6.984;2023-03-12T10:28:10;56640.78;;;-142.13;71.38
11712;BME280;5912;51.034;6.984;2023-03-12T10:30:40;56648.81;;;-142.13;71.53
11712;BME280;5912;51.034;6.984;2023-03-12T10:33:10;56620.75;;;-142.13;71.47
11712;BME280;5912;51.034;6.984;2023-03-12T10:35:38;56624.75;;;-142.13;72.04
11712;BME280;5912;51.034;6.984;2023-03-12T10:38:10;56640.78;;;-142.13;72.00
11712;BME280;5912;51.034;6.984;2023-03-12T10:40:39;56636.78;;;-142.13;72.03
11712;BME280;5912;51.034;6.984;2023-03-12T10:43:04;56630.78;;;-142.13;72.31
11712;BME280;5912;51.034;6.984;2023-03-12T10:46:00;56612.75;;;-142.13;72.62
11712;BME280;5912;51.034;6.984;2023-03-12T10:48:28;56636.78;;;-142.13;72.49
11712;BME280;5912;51.034;6.984;2023-03-12T10:51:05;56664.84;;;-142.13;72.54
11712;BME280;5912;51.034;6.984;2023-03-12T10:53:32;56654.81;;;-142.13;72.75
11712;BME280;5912;51.034;6.984;2023-03-12T10:58:47;56636.78;;;-142.13;72.74
11712;BME280;5912;51.034;6.984;2023-03-12T11:01:29;56632.78;;;-142.13;72.97
11712;BME280;5912;51.034;6.984;2023-03-12T11:04:15;56668.84;;;-142.13;73.17
11712;BME280;5912;51.034;6.984;2023-03-12T11:06:41;56618.75;;;-142.13;73.01
11712;BME280;5912;51.034;6.984;2023-03-12T11:09:19;56624.75;;;-142.13;73.29
11712;BME280;5912;51.034;6.984;2023-03-12T11:11:46;56622.75;;;-142.13;73.52
11712;BME280;5912;51.034;6.984;2023-03-12T11:14:20;56602.72;;;-142.13;73.77
11712;BME280;5912;51.034;6.984;2023-03-12T11:16:46;56648.81;;;-142.13;74.04
11712;BME280;5912;51.034;6.984;2023-03-12T11:19:14;56636.78;;;-142.13;73.97
11712;BME280;5912;51.034;6.984;2023-03-12T11:22:05;56604.72;;;-142.13;73.94
11712;BME280;5912;51.034;6.984;2023-03-12T11:24:32;56636.78;;;-142.13;73.92
11712;BME280;5912;51.034;6.984;2023-03-12T11:27:04;56610.75;;;-142.13;73.94
11712;BME280;5912;51.034;6.984;2023-03-12T11:29:34;56634.78;;;-142.13;74.04
11712;BME280;5912;51.034;6.984;2023-03-12T11:32:22;56602.72;;;-142.13;74.43
11712;BME280;5912;51.034;6.984;2023-03-12T11:34:49;56616.75;;;-142.13;74.57
11712;BME280;5912;51.034;6.984;2023-03-12T11:37:34;56624.75;;;-142.13;74.30
11712;BME280;5912;51.034;6.984;2023-03-12T11:40:26;56630.78;;;-142.13;74.26
11712;BME280;5912;51.034;6.984;2023-03-12T11:45:46;56606.75;;;-142.13;74.39
11712;BME280;5912;51.034;6.984;2023-03-12T11:56:48;56588.69;;;-142.13;74.13
11712;BME280;5912;51.034;6.984;2023-03-12T11:59:45;56576.69;;;-142.13;74.31
11712;BME280;5912;51.034;6.984;2023-03-12T12:02:27;56600.72;;;-142.13;74.25
11712;BME280;5912;51.034;6.984;2023-03-12T12:13:25;56564.66;;;-142.13;73.34
11712;BME280;5912;51.034;6.984;2023-03-12T12:15:58;56544.63;;;-142.13;73.72
11712;BME280;5912;51.034;6.984;2023-03-12T12:19:14;56520.59;;;-142.13;73.03
11712;BME280;5912;51.034;6.984;2023-03-12T12:27:20;56532.63;;;-142.13;73.43
11712;BME280;5912;51.034;6.984;2023-03-12T12:32:27;56508.56;;;-142.13;72.04
11712;BME280;5912;51.034;6.984;2023-03-12T12:35:07;56464.50;;;-142.13;70.30
11712;BME280;5912;51.034;6.984;2023-03-12T12:40:38;56420.44;;;-142.13;67.53
11712;BME280;5912;51.034;6.984;2023-03-12T12:43:26;56456.50;;;-142.13;65.77
11712;BME280;5912;51.034;6.984;2023-03-12T12:45:55;56432.44;;;-142.13;65.84
11712;BME280;5912;51.034;6.984;2023-03-12T12:48:26;56448.47;;;-142.13;66.42
11712;BME280;5912;51.034;6.984;2023-03-12T12:50:55;56452.47;;;-142.13;66.83
11712;BME280;5912;51.034;6.984;2023-03-12T12:53:43;56436.47;;;-142.13;67.16
11712;BME280;5912;51.034;6.984;2023-03-12T12:56:17;56456.50;;;-142.13;68.26
11712;BME280;5912;51.034;6.984;2023-03-12T12:58:56;56468.50;;;-142.13;68.35
11712;BME280;5912;51.034;6.984;2023-03-12T13:01:28;56456.50;;;-142.13;67.64
11712;BME280;5912;51.034;6.984;2023-03-12T13:04:01;56448.47;;;-142.13;67.11
11712;BME280;5912;51.034;6.984;2023-03-12T13:06:55;56428.44;;;-142.13;67.27
11712;BME280;5912;51.034;6.984;2023-03-12T13:09:43;56394.38;;;-142.13;66.45
11712;BME280;5912;51.034;6.984;2023-03-12T13:14:57;56412.41;;;-142.13;60.58
11712;BME280;5912;51.034;6.984;2023-03-12T13:17:33;56368.34;;;-142.13;59.01
11712;BME280;5912;51.034;6.984;2023-03-12T13:20:10;56378.38;;;-142.13;59.43
11712;BME280;5912;51.034;6.984;2023-03-12T13:27:57;56346.31;;;-142.13;60.23
11712;BME280;5912;51.034;6.984;2023-03-12T13:33:15;56404.41;;;-142.13;59.36
11712;BME280;5912;51.034;6.984;2023-03-12T13:35:41;56424.44;;;-142.13;59.23
11712;BME280;5912;51.034;6.984;2023-03-12T13:38:10;56400.41;;;-142.13;59.61
11712;BME280;5912;51.034;6.984;2023-03-12T13:43:15;56334.28;;;-142.13;59.88
11712;BME280;5912;51.034;6.984;2023-03-12T13:46:00;56376.34;;;-142.13;60.04
11712;BME280;5912;51.034;6.984;2023-03-12T13:48:28;56376.34;;;-142.13;56.69
11712;BME280;5912;51.034;6.984;2023-03-12T13:50:57;56376.34;;;-142.13;56.50
11712;BME280;5912;51.034;6.984;2023-03-12T13:53:27;56412.41;;;-142.13;57.14
11712;BME280;5912;51.034;6.984;2023-03-12T13:56:02;56408.41;;;-142.13;58.08
11712;BME280;5912;51.034;6.984;2023-03-12T13:58:29;56372.34;;;-142.13;54.66
11712;BME280;5912;51.034;6.984;2023-03-12T14:01:04;56386.38;;;-142.13;54.98
11712;BME280;5912;51.034;6.984;2023-03-12T14:03:39;56408.41;;;-142.13;56.68
11712;BME280;5912;51.034;6.984;2023-03-12T14:06:11;56400.41;;;-142.13;56.99
11712;BME280;5912;51.034;6.984;2023-03-12T14:08:55;56432.44;;;-142.13;57.16